createdAt,value
2018-05-21T00:00:59.482Z,15.43
2018-05-21T00:03:28.503Z,15.39
2018-05-21T00:05:56.763Z,15.33
2018-05-21T00:08:25.035Z,15.30
2018-05-21T00:10:53.456Z,15.24
2018-05-21T00:13:21.734Z,15.23
2018-05-21T00:15:49.974Z,15.22
2018-05-21T00:18:18.283Z,15.23
2018-05-21T00:20:46.588Z,15.22
2018-05-21T00:23:15.605Z,15.18
2018-05-21T00:25:43.870Z,15.14
2018-05-21T00:28:12.917Z,15.14
2018-05-21T00:30:41.213Z,15.15
2018-05-21T00:33:10.221Z,15.16
2018-05-21T00:35:38.463Z,15.13
2018-05-21T00:38:06.749Z,15.09
2018-05-21T00:40:35.012Z,15.06
2018-05-21T00:43:03.270Z,15.06
2018-05-21T00:45:31.528Z,15.01
2018-05-21T00:47:59.855Z,14.91
2018-05-21T00:50:28.132Z,14.92
2018-05-21T00:52:57.922Z,14.85
2018-05-21T00:55:38.321Z,14.85
2018-05-21T00:58:06.577Z,14.82
2018-05-21T01:00:34.826Z,14.85
2018-05-21T01:03:03.081Z,14.78
2018-05-21T01:05:31.338Z,14.74
2018-05-21T01:08:00.372Z,14.71
2018-05-21T01:10:28.682Z,14.74
2018-05-21T01:12:57.722Z,14.71
2018-05-21T01:15:26.053Z,14.69
2018-05-21T01:17:54.329Z,14.67
2018-05-21T01:20:22.613Z,14.62
2018-05-21T01:22:51.647Z,14.58
2018-05-21T01:25:19.939Z,14.52
2018-05-21T01:27:48.214Z,14.57
2018-05-21T01:30:16.545Z,14.56
2018-05-21T01:32:45.615Z,14.55
2018-05-21T01:35:13.916Z,14.44
2018-05-21T01:37:42.995Z,14.44
2018-05-21T01:40:12.038Z,14.45
2018-05-21T01:42:40.311Z,14.37
2018-05-21T01:45:08.590Z,14.32
2018-05-21T01:47:36.869Z,14.29
2018-05-21T01:50:05.150Z,14.29
2018-05-21T01:52:33.434Z,14.31
2018-05-21T01:55:01.707Z,14.27
2018-05-21T01:57:30.025Z,14.24
2018-05-21T01:59:58.308Z,14.23
2018-05-21T02:02:28.106Z,14.25
2018-05-21T02:04:56.389Z,14.23
2018-05-21T02:07:24.673Z,14.19
2018-05-21T02:09:52.948Z,14.20
2018-05-21T02:12:21.212Z,14.14
2018-05-21T02:14:49.485Z,14.16
2018-05-21T02:17:17.918Z,14.14
2018-05-21T02:19:46.195Z,14.17
2018-05-21T02:22:14.477Z,14.14
2018-05-21T02:24:42.749Z,14.11
2018-05-21T02:27:11.023Z,14.06
2018-05-21T02:29:39.316Z,14.11
2018-05-21T02:32:07.614Z,14.07
2018-05-21T02:34:35.892Z,14.06
2018-05-21T02:37:04.184Z,14.00
2018-05-21T02:42:08.678Z,13.97
2018-05-21T02:44:36.943Z,13.96
2018-05-21T02:47:05.387Z,13.96
2018-05-21T02:49:35.167Z,13.95
2018-05-21T02:52:03.440Z,13.96
2018-05-21T02:54:31.836Z,13.95
2018-05-21T02:57:00.129Z,13.92
2018-05-21T02:59:28.405Z,13.92
2018-05-21T03:01:57.454Z,13.86
2018-05-21T03:04:25.743Z,13.80
2018-05-21T03:06:54.006Z,13.71
2018-05-21T03:09:22.282Z,13.71
2018-05-21T03:11:50.542Z,13.70
2018-05-21T03:14:18.872Z,13.72
2018-05-21T03:16:47.149Z,13.74
2018-05-21T03:19:15.490Z,13.68
2018-05-21T03:21:43.767Z,13.67
2018-05-21T03:24:12.082Z,13.61
2018-05-21T03:26:40.357Z,13.59
2018-05-21T03:29:09.397Z,13.57
2018-05-21T03:31:37.675Z,13.57
2018-05-21T03:34:05.943Z,13.56
2018-05-21T03:36:34.997Z,13.63
2018-05-21T03:39:04.046Z,13.57
2018-05-21T03:41:32.352Z,13.53
2018-05-21T03:44:00.644Z,13.53
2018-05-21T03:46:30.456Z,13.58
2018-05-21T03:48:58.741Z,13.55
2018-05-21T03:51:28.522Z,13.51
2018-05-21T03:53:56.812Z,13.46
2018-05-21T03:56:25.616Z,13.46
2018-05-21T03:59:11.610Z,13.44
2018-05-21T04:01:59.549Z,13.42
2018-05-21T04:04:27.842Z,13.42
2018-05-21T04:06:56.090Z,13.43
2018-05-21T04:09:25.165Z,13.49
2018-05-21T04:11:53.529Z,13.50
2018-05-21T04:14:21.705Z,13.53
2018-05-21T04:16:49.991Z,13.41
2018-05-21T04:19:18.290Z,13.48
2018-05-21T04:21:46.567Z,13.54
2018-05-21T04:24:16.387Z,13.61
2018-05-21T04:26:46.198Z,13.61
2018-05-21T04:29:15.231Z,13.66
2018-05-21T04:31:43.508Z,13.68
2018-05-21T04:34:11.783Z,13.72
2018-05-21T04:36:40.060Z,13.67
2018-05-21T04:39:08.330Z,13.71
2018-05-21T04:41:37.699Z,13.72
2018-05-21T04:44:06.733Z,13.74
2018-05-21T04:46:34.999Z,13.77
2018-05-21T04:49:04.302Z,13.78
2018-05-21T04:51:33.349Z,13.80
2018-05-21T04:54:01.608Z,13.83
2018-05-21T04:56:29.894Z,13.81
2018-05-21T04:58:58.194Z,13.87
2018-05-21T05:01:27.221Z,13.89
2018-05-21T05:03:55.504Z,13.90
2018-05-21T05:06:23.930Z,13.93
2018-05-21T05:08:52.205Z,13.95
2018-05-21T05:11:20.495Z,13.92
2018-05-21T05:13:50.300Z,14.06
2018-05-21T05:16:18.535Z,14.08
2018-05-21T05:18:46.776Z,14.05
2018-05-21T05:21:15.815Z,13.98
2018-05-21T05:23:44.055Z,14.02
2018-05-21T05:26:13.069Z,14.07
2018-05-21T05:28:41.341Z,14.15
2018-05-21T05:31:09.594Z,14.21
2018-05-21T05:33:38.666Z,14.21
2018-05-21T05:36:07.787Z,14.34
2018-05-21T05:38:36.006Z,14.43
2018-05-21T05:41:04.305Z,14.41
2018-05-21T05:43:33.348Z,14.41
2018-05-21T05:46:01.622Z,14.39
2018-05-21T05:48:29.892Z,14.34
2018-05-21T05:50:58.332Z,14.33
2018-05-21T05:53:26.608Z,14.43
2018-05-21T05:55:56.409Z,14.57
2018-05-21T05:58:24.706Z,14.52
2018-05-21T06:00:52.981Z,14.55
2018-05-21T06:03:21.323Z,14.69
2018-05-21T06:05:49.627Z,14.69
2018-05-21T06:08:17.884Z,14.68
2018-05-21T06:10:46.164Z,14.71
2018-05-21T06:13:14.760Z,14.76
2018-05-21T06:15:43.037Z,14.80
2018-05-21T06:18:11.399Z,14.78
2018-05-21T06:20:39.694Z,14.89
2018-05-21T06:23:07.986Z,14.99
2018-05-21T06:25:36.287Z,15.08
2018-05-21T06:28:04.598Z,15.25
2018-05-21T06:30:32.892Z,15.31
2018-05-21T06:33:01.176Z,15.37
2018-05-21T06:35:29.453Z,15.36
2018-05-21T06:37:57.729Z,15.47
2018-05-21T06:40:26.085Z,15.54
2018-05-21T06:42:54.369Z,15.55
2018-05-21T06:45:22.677Z,15.73
2018-05-21T06:47:51.784Z,15.70
2018-05-21T06:50:19.998Z,15.72
2018-05-21T06:52:48.409Z,15.84
2018-05-21T06:55:17.516Z,15.86
2018-05-21T06:57:46.554Z,15.93
2018-05-21T07:00:14.821Z,16.02
2018-05-21T07:02:43.368Z,16.07
2018-05-21T07:05:13.155Z,16.21
2018-05-21T07:07:41.467Z,16.45
2018-05-21T07:10:10.489Z,16.53
2018-05-21T07:12:38.764Z,16.62
2018-05-21T07:15:07.070Z,16.80
2018-05-21T07:17:35.458Z,16.96
2018-05-21T07:20:03.699Z,16.96
2018-05-21T07:22:31.941Z,17.09
2018-05-21T07:25:00.993Z,17.25
2018-05-21T07:27:29.302Z,17.35
2018-05-21T07:29:58.363Z,17.43
2018-05-21T07:32:26.649Z,17.33
2018-05-21T07:34:54.949Z,17.17
2018-05-21T07:37:24.746Z,17.40
2018-05-21T07:39:53.039Z,17.63
2018-05-21T07:42:21.305Z,17.79
2018-05-21T07:44:49.591Z,17.83
2018-05-21T07:47:17.903Z,17.68
2018-05-21T07:49:46.958Z,17.86
2018-05-21T07:52:15.229Z,17.91
2018-05-21T07:54:43.511Z,17.98
2018-05-21T07:57:11.791Z,18.00
2018-05-21T07:59:41.597Z,18.24
2018-05-21T08:02:09.863Z,18.26
2018-05-21T08:04:38.147Z,18.41
2018-05-21T08:07:06.439Z,18.65
2018-05-21T08:09:34.707Z,18.63
2018-05-21T08:12:03.164Z,18.79
2018-05-21T08:14:31.557Z,19.03
2018-05-21T08:17:01.322Z,19.16
2018-05-21T08:19:29.552Z,19.44
2018-05-21T08:21:59.357Z,19.46
2018-05-21T08:24:27.600Z,19.65
2018-05-21T08:26:55.893Z,19.79
2018-05-21T08:29:24.134Z,19.90
2018-05-21T08:31:52.406Z,20.08
2018-05-21T08:34:20.676Z,20.21
2018-05-21T08:36:49.692Z,20.30
2018-05-21T08:39:17.928Z,20.37
2018-05-21T08:41:46.984Z,20.48
2018-05-21T08:44:15.215Z,20.74
2018-05-21T08:46:44.225Z,20.81
2018-05-21T08:49:12.498Z,20.74
2018-05-21T08:51:40.774Z,20.80
2018-05-21T08:54:09.073Z,20.93
2018-05-21T08:56:37.391Z,21.02
2018-05-21T08:59:05.607Z,21.19
2018-05-21T09:01:33.885Z,21.20
2018-05-21T09:04:02.315Z,21.27
2018-05-21T09:06:30.542Z,21.44
2018-05-21T09:08:58.803Z,21.59
2018-05-21T09:11:27.062Z,21.69
2018-05-21T09:13:56.093Z,21.75
2018-05-21T09:16:24.402Z,21.85
2018-05-21T09:18:52.623Z,21.97
2018-05-21T09:21:20.921Z,22.04
2018-05-21T09:23:49.177Z,22.15
2018-05-21T09:26:17.609Z,22.26
2018-05-21T09:28:45.853Z,22.37
2018-05-21T09:31:14.087Z,22.56
2018-05-21T09:33:43.102Z,22.51
2018-05-21T09:36:11.377Z,22.69
2018-05-21T09:38:39.655Z,22.72
2018-05-21T09:41:07.922Z,22.74
2018-05-21T09:43:36.938Z,22.81
2018-05-21T09:46:05.217Z,22.94
2018-05-21T09:48:33.518Z,23.05
2018-05-21T09:51:01.772Z,23.12
2018-05-21T09:53:30.007Z,23.23
2018-05-21T09:55:59.055Z,23.37
2018-05-21T09:58:27.301Z,23.50
2018-05-21T10:00:55.550Z,23.54
2018-05-21T10:03:24.590Z,23.59
2018-05-21T10:05:52.856Z,23.62
2018-05-21T10:08:21.290Z,23.72
2018-05-21T10:10:50.341Z,23.83
2018-05-21T10:13:18.619Z,23.94
2018-05-21T10:15:47.153Z,24.10
2018-05-21T10:18:15.408Z,24.08
2018-05-21T10:20:44.425Z,24.15
2018-05-21T10:23:13.593Z,24.20
2018-05-21T10:25:41.848Z,24.21
2018-05-21T10:28:10.136Z,24.27
2018-05-21T10:30:38.387Z,24.53
2018-05-21T10:33:06.720Z,24.40
2018-05-21T10:35:35.707Z,24.52
2018-05-21T10:38:03.966Z,24.22
2018-05-21T10:40:32.240Z,24.28
2018-05-21T10:43:00.596Z,24.37
2018-05-21T10:45:28.836Z,24.37
2018-05-21T10:47:57.875Z,24.52
2018-05-21T10:50:26.122Z,24.54
2018-05-21T10:52:54.411Z,24.51
2018-05-21T10:55:22.632Z,24.53
2018-05-21T10:57:51.663Z,24.51
2018-05-21T11:00:19.927Z,24.68
2018-05-21T11:02:48.955Z,24.61
2018-05-21T11:05:18.645Z,24.74
2018-05-21T11:07:46.898Z,24.94
2018-05-21T11:10:15.914Z,24.86
2018-05-21T11:12:45.062Z,24.82
2018-05-21T11:15:14.084Z,24.92
2018-05-21T11:17:43.077Z,25.14
2018-05-21T11:20:12.118Z,25.22
2018-05-21T11:22:40.358Z,25.33
2018-05-21T11:25:08.610Z,25.21
2018-05-21T11:27:37.766Z,25.33
2018-05-21T11:30:06.051Z,25.44
2018-05-21T11:32:34.282Z,25.11
2018-05-21T11:35:02.555Z,25.11
2018-05-21T11:37:30.799Z,25.34
2018-05-21T11:39:59.808Z,25.30
2018-05-21T11:42:28.064Z,25.28
2018-05-21T11:44:57.083Z,25.34
2018-05-21T11:47:26.087Z,25.39
2018-05-21T11:49:54.374Z,25.53
2018-05-21T11:52:22.639Z,25.67
2018-05-21T11:54:50.926Z,25.62
2018-05-21T11:57:19.198Z,25.78
2018-05-21T11:59:47.453Z,25.84
2018-05-21T12:02:16.502Z,25.92
2018-05-21T12:04:44.739Z,25.81
2018-05-21T12:07:12.986Z,25.73
2018-05-21T12:09:42.046Z,25.82
2018-05-21T12:12:10.627Z,25.73
2018-05-21T12:14:38.862Z,25.70
2018-05-21T12:17:07.112Z,25.43
2018-05-21T12:19:36.419Z,25.09
2018-05-21T12:22:05.428Z,25.09
2018-05-21T12:24:34.466Z,25.16
2018-05-21T12:27:02.725Z,25.10
2018-05-21T12:29:30.978Z,25.05
2018-05-21T12:31:59.214Z,25.10
2018-05-21T12:34:29.111Z,25.26
2018-05-21T12:36:57.355Z,25.47
2018-05-21T12:39:25.587Z,25.36
2018-05-21T12:41:54.023Z,24.98
2018-05-21T12:44:22.295Z,24.75
2018-05-21T12:46:50.603Z,24.83
2018-05-21T12:49:18.811Z,25.07
2018-05-21T12:51:47.837Z,25.11
2018-05-21T12:54:16.081Z,25.13
2018-05-21T12:56:44.326Z,25.36
2018-05-21T12:59:13.363Z,25.44
2018-05-21T13:01:42.377Z,25.58
2018-05-21T13:04:10.629Z,25.67
2018-05-21T13:06:38.895Z,25.67
2018-05-21T13:09:08.050Z,25.54
2018-05-21T13:11:36.281Z,25.39
2018-05-21T13:14:04.530Z,25.45
2018-05-21T13:16:34.278Z,25.54
2018-05-21T13:19:02.542Z,25.59
2018-05-21T13:21:30.773Z,25.46
2018-05-21T13:23:59.782Z,25.23
2018-05-21T13:26:29.162Z,25.06
2018-05-21T13:28:57.423Z,25.07
2018-05-21T13:31:25.665Z,24.92
2018-05-21T13:33:54.675Z,24.68
2018-05-21T13:36:22.914Z,24.40
2018-05-21T13:38:51.925Z,24.26
2018-05-21T13:41:20.942Z,24.32
2018-05-21T13:43:49.200Z,24.43
2018-05-21T13:46:17.441Z,24.61
2018-05-21T13:48:46.446Z,24.68
2018-05-21T13:51:15.460Z,24.78
2018-05-21T13:53:43.701Z,24.86
2018-05-21T13:56:12.721Z,24.91
2018-05-21T13:58:41.749Z,25.05
2018-05-21T14:01:09.998Z,25.18
2018-05-21T14:03:38.241Z,25.05
2018-05-21T14:06:06.479Z,25.09
2018-05-21T14:08:34.733Z,25.03
2018-05-21T14:11:02.973Z,25.14
2018-05-21T14:13:31.977Z,25.39
2018-05-21T14:16:01.142Z,25.36
2018-05-21T14:18:29.380Z,25.32
2018-05-21T14:20:57.627Z,25.27
2018-05-21T14:23:26.645Z,25.27
2018-05-21T14:25:54.886Z,25.40
2018-05-21T14:28:23.118Z,25.34
2018-05-21T14:30:51.537Z,25.38
2018-05-21T14:33:19.841Z,25.29
2018-05-21T14:35:48.031Z,25.06
2018-05-21T14:38:18.307Z,24.85
2018-05-21T14:40:47.314Z,24.90
2018-05-21T14:43:16.323Z,24.89
2018-05-21T14:45:44.709Z,24.95
2018-05-21T14:48:13.002Z,24.90
2018-05-21T14:50:41.233Z,24.85
2018-05-21T14:53:10.453Z,24.96
2018-05-21T14:55:38.691Z,25.00
2018-05-21T14:58:06.924Z,25.01
2018-05-21T15:00:35.312Z,24.91
2018-05-21T15:03:03.550Z,24.70
2018-05-21T15:05:32.557Z,24.44
2018-05-21T15:08:00.807Z,24.16
2018-05-21T15:10:29.818Z,23.71
2018-05-21T15:12:58.062Z,23.26
2018-05-21T15:15:27.061Z,23.19
2018-05-21T15:17:55.623Z,23.00
2018-05-21T15:20:23.866Z,22.82
2018-05-21T15:22:52.105Z,22.71
2018-05-21T15:25:21.126Z,22.45
2018-05-21T15:27:49.714Z,22.23
2018-05-21T15:30:17.955Z,22.11
2018-05-21T15:32:46.958Z,22.11
2018-05-21T15:35:15.980Z,21.87
2018-05-21T15:37:44.210Z,21.86
2018-05-21T15:40:12.452Z,21.80
2018-05-21T15:42:40.697Z,21.57
2018-05-21T15:45:08.935Z,21.54
2018-05-21T15:47:37.169Z,21.53
2018-05-21T15:50:05.417Z,21.43
2018-05-21T15:52:33.654Z,21.36
2018-05-21T15:55:01.902Z,21.30
2018-05-21T15:57:30.186Z,21.23
2018-05-21T15:59:58.369Z,21.24
2018-05-21T16:02:26.615Z,21.17
2018-05-21T16:04:54.854Z,21.09
2018-05-21T16:07:23.869Z,21.12
2018-05-21T16:09:52.271Z,21.07
2018-05-21T16:12:20.506Z,20.97
2018-05-21T16:14:49.514Z,21.02
2018-05-21T16:17:17.766Z,21.06
2018-05-21T16:19:46.779Z,21.04
2018-05-21T16:22:15.020Z,21.03
2018-05-21T16:24:43.267Z,20.98
2018-05-21T16:27:11.507Z,20.93
2018-05-21T16:29:39.764Z,20.92
2018-05-21T16:32:08.761Z,20.92
2018-05-21T16:34:37.757Z,20.94
2018-05-21T16:37:06.766Z,20.85
2018-05-21T16:39:34.997Z,20.87
2018-05-21T16:42:03.242Z,20.88
2018-05-21T16:44:31.478Z,20.90
2018-05-21T16:47:00.057Z,20.93
2018-05-21T16:49:29.066Z,20.91
2018-05-21T16:51:57.302Z,20.84
2018-05-21T16:54:25.750Z,20.86
2018-05-21T16:56:53.989Z,20.88
2018-05-21T16:59:22.232Z,20.89
2018-05-21T17:01:50.515Z,20.87
2018-05-21T17:04:19.535Z,20.93
2018-05-21T17:06:47.774Z,20.89
2018-05-21T17:09:16.331Z,21.06
2018-05-21T17:11:44.566Z,20.97
2018-05-21T17:14:12.814Z,20.96
2018-05-21T17:16:41.057Z,21.17
2018-05-21T17:19:09.295Z,21.04
2018-05-21T17:21:37.541Z,20.99
2018-05-21T17:24:05.785Z,20.99
2018-05-21T17:26:34.228Z,20.98
2018-05-21T17:29:02.468Z,21.03
2018-05-21T17:31:30.693Z,20.97
2018-05-21T17:33:58.946Z,20.96
2018-05-21T17:36:27.186Z,20.92
2018-05-21T17:38:55.419Z,20.97
2018-05-21T17:41:23.877Z,21.00
2018-05-21T17:43:52.111Z,21.08
2018-05-21T17:46:20.345Z,21.01
2018-05-21T17:48:48.613Z,21.02
2018-05-21T17:51:16.851Z,20.98
2018-05-21T17:53:45.098Z,20.92
2018-05-21T17:56:13.334Z,20.86
2018-05-21T17:58:41.574Z,20.77
2018-05-21T18:01:09.807Z,20.73
2018-05-21T18:03:38.086Z,20.73
2018-05-21T18:06:06.309Z,20.70
2018-05-21T18:08:35.326Z,20.64
2018-05-21T18:11:03.578Z,20.60
2018-05-21T18:13:32.580Z,20.61
2018-05-21T18:16:01.590Z,20.51
2018-05-21T18:18:29.839Z,20.43
2018-05-21T18:20:58.267Z,20.36
2018-05-21T18:23:26.519Z,20.29
2018-05-21T18:25:54.764Z,20.26
2018-05-21T18:28:23.007Z,20.14
2018-05-21T18:30:51.257Z,20.04
2018-05-21T18:33:19.828Z,19.96
2018-05-21T18:35:48.898Z,20.02
2018-05-21T18:38:17.082Z,20.02
2018-05-21T18:40:46.114Z,19.98
2018-05-21T18:43:14.354Z,19.92
2018-05-21T18:45:43.359Z,19.92
2018-05-21T18:48:12.365Z,19.88
2018-05-21T18:50:40.939Z,19.86
2018-05-21T18:53:09.182Z,19.76
2018-05-21T18:55:37.517Z,19.68
2018-05-21T18:58:05.869Z,19.65
2018-05-21T19:00:35.071Z,19.62
2018-05-21T19:03:04.075Z,19.56
2018-05-21T19:05:32.329Z,19.49
2018-05-21T19:08:01.385Z,19.45
2018-05-21T19:10:29.628Z,19.39
2018-05-21T19:12:57.891Z,19.34
2018-05-21T19:15:26.466Z,19.27
2018-05-21T19:17:54.707Z,19.23
2018-05-21T19:20:22.947Z,19.20
2018-05-21T19:22:51.205Z,19.16
2018-05-21T19:25:19.433Z,19.13
2018-05-21T19:27:47.679Z,19.09
2018-05-21T19:30:15.925Z,19.06
2018-05-21T19:32:44.179Z,19.02
2018-05-21T19:35:12.472Z,18.99
2018-05-21T19:37:40.718Z,18.91
2018-05-21T19:40:09.343Z,18.88
2018-05-21T19:42:37.586Z,18.84
2018-05-21T19:45:06.594Z,18.79
2018-05-21T19:47:34.842Z,18.72
2018-05-21T19:50:03.898Z,18.72
2018-05-21T19:52:32.163Z,18.68
2018-05-21T19:55:00.438Z,18.62
2018-05-21T19:57:28.674Z,18.60
2018-05-21T19:59:57.757Z,18.62
2018-05-21T20:02:25.967Z,18.60
2018-05-21T20:04:54.295Z,18.57
2018-05-21T20:07:23.421Z,18.54
2018-05-21T20:09:51.754Z,18.51
2018-05-21T20:12:19.990Z,18.50
2018-05-21T20:14:48.494Z,18.41
2018-05-21T20:17:16.776Z,18.43
2018-05-21T20:19:45.011Z,18.35
2018-05-21T20:22:14.029Z,18.38
2018-05-21T20:24:42.351Z,18.35
2018-05-21T20:27:10.592Z,18.34
2018-05-21T20:29:38.843Z,18.31
2018-05-21T20:32:07.102Z,18.27
2018-05-21T20:37:11.631Z,18.21
2018-05-21T20:39:39.806Z,18.23
2018-05-21T20:42:08.814Z,18.22
2018-05-21T20:44:37.817Z,18.23
2018-05-21T20:47:06.073Z,18.23
2018-05-21T20:49:35.095Z,18.23
2018-05-21T20:52:03.353Z,18.16
2018-05-21T20:54:32.369Z,18.10
2018-05-21T20:57:00.610Z,18.08
2018-05-21T20:59:29.627Z,18.07
2018-05-21T21:01:57.908Z,18.00
2018-05-21T21:04:26.166Z,17.96
2018-05-21T21:06:55.179Z,18.01
2018-05-21T21:09:23.605Z,18.00
2018-05-21T21:11:51.892Z,18.00
2018-05-21T21:14:20.125Z,17.99
2018-05-21T21:16:48.498Z,17.97
2018-05-21T21:19:16.718Z,17.95
2018-05-21T21:21:45.034Z,17.91
2018-05-21T21:24:13.227Z,17.89
2018-05-21T21:26:41.467Z,17.82
2018-05-21T21:29:10.477Z,17.74
2018-05-21T21:31:38.721Z,17.76
2018-05-21T21:34:06.987Z,17.72
2018-05-21T21:36:35.231Z,17.69
2018-05-21T21:39:03.777Z,17.67
2018-05-21T21:41:32.142Z,17.61
2018-05-21T21:44:01.236Z,17.58
2018-05-21T21:46:29.512Z,17.59
2018-05-21T21:48:58.522Z,17.54
2018-05-21T21:51:26.779Z,17.45
2018-05-21T21:53:55.010Z,17.45
2018-05-21T21:56:23.250Z,17.42
2018-05-21T21:58:52.450Z,17.42
2018-05-21T22:01:20.685Z,17.41
2018-05-21T22:03:48.924Z,17.39
2018-05-21T22:06:17.575Z,17.34
2018-05-21T22:08:46.576Z,17.28
2018-05-21T22:11:14.818Z,17.27
2018-05-21T22:13:43.062Z,17.22
2018-05-21T22:16:11.313Z,17.19
2018-05-21T22:18:39.555Z,17.15
2018-05-21T22:21:08.571Z,17.14
2018-05-21T22:23:36.820Z,17.16
2018-05-21T22:26:05.067Z,17.11
2018-05-21T22:28:33.523Z,17.09
2018-05-21T22:31:01.770Z,17.07
2018-05-21T22:33:30.776Z,17.07
2018-05-21T22:35:59.030Z,17.02
2018-05-21T22:38:28.033Z,17.00
2018-05-21T22:40:57.040Z,16.96
2018-05-21T22:43:25.292Z,16.91
2018-05-21T22:45:54.304Z,16.90
2018-05-21T22:48:23.403Z,16.88
2018-05-21T22:50:51.880Z,16.84
2018-05-21T22:53:20.109Z,16.81
2018-05-21T22:55:48.344Z,16.83
2018-05-21T22:58:16.818Z,16.80
2018-05-21T23:00:45.051Z,16.80
2018-05-21T23:03:13.282Z,16.77
2018-05-21T23:05:41.533Z,16.77
2018-05-21T23:08:09.778Z,16.72
2018-05-21T23:10:38.019Z,16.70
2018-05-21T23:13:06.591Z,16.66
2018-05-21T23:15:34.834Z,16.65
2018-05-21T23:18:03.833Z,16.60
2018-05-21T23:20:32.849Z,16.60
2018-05-21T23:23:01.081Z,16.59
2018-05-21T23:25:29.434Z,16.57
2018-05-21T23:27:57.731Z,16.53
2018-05-21T23:30:25.952Z,16.51
2018-05-21T23:32:54.337Z,16.49
2018-05-21T23:35:22.577Z,16.48
2018-05-21T23:37:51.581Z,16.41
2018-05-21T23:40:20.602Z,16.39
2018-05-21T23:42:48.841Z,16.45
2018-05-21T23:45:17.842Z,16.43
2018-05-21T23:47:46.858Z,16.39
2018-05-21T23:50:15.970Z,16.43
2018-05-21T23:52:44.223Z,16.36
2018-05-21T23:55:13.452Z,16.43
2018-05-21T23:57:41.695Z,16.40
